createdAt,value
2022-09-20T00:01:40.914Z,11.70
2022-09-20T00:04:53.720Z,12.25
2022-09-20T00:08:05.732Z,12.70
2022-09-20T00:11:20.940Z,12.65
2022-09-20T00:14:33.264Z,11.83
2022-09-20T00:17:45.046Z,12.40
2022-09-20T00:20:58.461Z,12.55
2022-09-20T00:24:11.101Z,12.35
2022-09-20T00:27:23.284Z,12.75
2022-09-20T00:30:35.062Z,12.25
2022-09-20T00:34:01.814Z,13.10
2022-09-20T00:37:14.156Z,12.00
2022-09-20T00:40:28.941Z,12.75
2022-09-20T00:43:46.942Z,12.18
2022-09-20T00:46:59.388Z,12.20
2022-09-20T00:50:21.803Z,12.33
2022-09-20T00:53:38.382Z,11.98
2022-09-20T00:56:50.802Z,12.63
2022-09-20T01:00:02.858Z,13.88
2022-09-20T01:03:17.269Z,11.95
2022-09-20T01:06:30.858Z,12.60
2022-09-20T01:09:44.358Z,13.08
2022-09-20T01:12:58.427Z,12.58
2022-09-20T01:16:12.360Z,12.48
2022-09-20T01:19:29.840Z,13.60
2022-09-20T01:22:48.297Z,12.20
2022-09-20T01:26:28.772Z,13.25
2022-09-20T01:30:12.019Z,14.88
2022-09-20T01:33:31.082Z,13.83
2022-09-20T01:36:48.772Z,14.28
2022-09-20T01:40:10.796Z,13.05
2022-09-20T01:43:31.457Z,13.88
2022-09-20T01:46:47.953Z,13.40
2022-09-20T01:50:07.638Z,13.60
2022-09-20T01:53:59.749Z,12.55
2022-09-20T01:58:09.996Z,14.08
2022-09-20T02:02:13.039Z,14.70
2022-09-20T02:05:56.076Z,13.38
2022-09-20T02:09:46.153Z,13.38
2022-09-20T02:13:04.814Z,13.08
2022-09-20T02:16:51.717Z,13.15
2022-09-20T02:20:22.123Z,14.05
2022-09-20T02:23:48.367Z,13.30
2022-09-20T02:27:10.264Z,13.48
2022-09-20T02:30:37.188Z,13.58
2022-09-20T02:34:31.452Z,13.98
2022-09-20T02:38:40.770Z,14.03
2022-09-20T02:42:07.423Z,13.53
2022-09-20T02:45:25.050Z,13.87
2022-09-20T02:48:42.498Z,12.93
2022-09-20T02:51:59.515Z,13.60
2022-09-20T02:58:43.228Z,12.63
2022-09-20T03:02:04.160Z,13.43
2022-09-20T03:05:24.345Z,13.53
2022-09-20T03:08:44.464Z,13.58
2022-09-20T03:12:05.123Z,13.50
2022-09-20T03:15:27.378Z,12.35
2022-09-20T03:18:48.026Z,13.70
2022-09-20T03:22:08.592Z,11.75
2022-09-20T03:25:49.446Z,12.73
2022-09-20T03:29:09.053Z,13.65
2022-09-20T03:32:33.091Z,13.33
2022-09-20T03:35:58.200Z,13.85
2022-09-20T03:39:34.442Z,14.93
2022-09-20T03:42:51.287Z,13.30
2022-09-20T03:46:22.588Z,14.78
2022-09-20T03:50:01.162Z,13.53
2022-09-20T03:53:40.020Z,13.50
2022-09-20T04:00:08.101Z,13.50
2022-09-20T04:03:38.850Z,13.08
2022-09-20T04:07:08.554Z,13.30
2022-09-20T04:10:40.834Z,13.35
2022-09-20T04:13:59.228Z,13.03
2022-09-20T04:17:21.475Z,12.53
2022-09-20T04:20:44.004Z,11.90
2022-09-20T04:24:03.716Z,12.10
2022-09-20T04:27:23.911Z,12.45
2022-09-20T04:30:42.050Z,11.95
2022-09-20T04:33:57.376Z,12.35
2022-09-20T04:37:31.481Z,12.05
2022-09-20T04:41:16.659Z,11.78
2022-09-20T04:45:08.867Z,12.20
2022-09-20T04:49:10.285Z,12.83
2022-09-20T04:52:55.218Z,12.90
2022-09-20T04:56:14.026Z,12.35
2022-09-20T04:59:34.242Z,13.53
2022-09-20T05:03:25.197Z,12.15
2022-09-20T05:06:57.336Z,12.63
2022-09-20T05:10:41.509Z,12.13
2022-09-20T05:14:18.426Z,12.88
2022-09-20T05:17:47.024Z,12.57
2022-09-20T05:21:15.063Z,12.90
2022-09-20T05:24:46.947Z,12.58
2022-09-20T05:28:06.116Z,12.73
2022-09-20T05:31:23.709Z,13.03
2022-09-20T05:34:42.398Z,14.88
2022-09-20T05:38:02.335Z,31.28
2022-09-20T05:41:23.821Z,14.95
2022-09-20T05:44:44.160Z,16.53
2022-09-20T05:48:03.632Z,16.08
2022-09-20T05:51:24.207Z,15.60
2022-09-20T05:55:18.273Z,14.98
2022-09-20T05:59:11.061Z,15.45
2022-09-20T06:02:35.067Z,16.05
2022-09-20T06:05:54.776Z,16.00
2022-09-20T06:09:41.531Z,16.35
2022-09-20T06:13:01.971Z,16.48
2022-09-20T06:16:22.774Z,16.18
2022-09-20T06:19:45.420Z,15.90
2022-09-20T06:23:00.805Z,15.50
2022-09-20T06:26:19.813Z,16.05
2022-09-20T06:29:37.188Z,15.45
2022-09-20T06:33:04.452Z,15.25
2022-09-20T06:54:28.094Z,14.73
2022-09-20T06:57:55.611Z,14.43
2022-09-20T07:01:11.955Z,16.90
2022-09-20T07:04:25.899Z,13.95
2022-09-20T07:37:32.779Z,13.28
2022-09-20T07:40:43.702Z,11.73
2022-09-20T07:43:57.289Z,11.73
2022-09-20T07:50:25.068Z,11.63
2022-09-20T07:56:52.948Z,11.55
2022-09-20T08:00:04.639Z,10.90
2022-09-20T08:03:18.261Z,10.70
2022-09-20T08:06:31.077Z,11.73
2022-09-20T08:09:42.678Z,11.58
2022-09-20T08:16:15.272Z,9.83
2022-09-20T08:19:28.881Z,9.18
2022-09-20T08:22:43.391Z,8.38
2022-09-20T08:25:54.996Z,8.65
2022-09-20T08:29:08.067Z,8.05
2022-09-20T08:32:19.839Z,7.50
2022-09-20T08:35:31.576Z,7.48
2022-09-20T08:42:02.922Z,8.18
2022-09-20T08:45:33.602Z,7.73
2022-09-20T08:48:38.309Z,6.95
2022-09-20T08:51:51.084Z,7.58
2022-09-20T08:55:08.044Z,6.30
2022-09-20T09:01:33.553Z,6.53
2022-09-20T09:04:46.175Z,6.53
2022-09-20T09:07:58.506Z,6.05
2022-09-20T09:11:17.049Z,5.93
2022-09-20T09:14:54.364Z,6.13
2022-09-20T09:18:06.450Z,5.15
2022-09-20T09:21:25.780Z,5.35
2022-09-20T09:24:37.663Z,5.23
2022-09-20T09:28:01.323Z,5.30
2022-09-20T09:31:30.316Z,4.25
2022-09-20T09:34:42.415Z,4.10
2022-09-20T09:38:02.384Z,4.80
2022-09-20T09:41:29.844Z,5.53
2022-09-20T09:44:41.769Z,10.10
2022-09-20T09:47:53.613Z,3.40
2022-09-20T09:51:20.587Z,5.78
2022-09-20T09:54:36.103Z,3.75
2022-09-20T09:57:54.260Z,3.25
2022-09-20T10:01:11.175Z,2.80
2022-09-20T10:04:28.727Z,3.63
2022-09-20T10:07:45.772Z,4.90
2022-09-20T10:11:08.545Z,3.78
2022-09-20T10:14:33.751Z,3.03
2022-09-20T10:18:03.806Z,3.08
2022-09-20T10:21:26.315Z,2.80
2022-09-20T10:24:48.616Z,2.50
2022-09-20T10:28:11.706Z,2.33
2022-09-20T10:31:35.685Z,2.68
2022-09-20T10:35:18.381Z,2.43
2022-09-20T10:38:35.740Z,2.10
2022-09-20T10:42:13.966Z,2.13
2022-09-20T10:45:59.532Z,2.30
2022-09-20T10:48:49.271Z,1.93
2022-09-20T10:52:19.559Z,1.63
2022-09-20T10:55:46.530Z,24.70
2022-09-20T10:59:28.527Z,10.83
2022-09-20T11:02:53.574Z,6.65
2022-09-20T11:06:17.569Z,3.40
2022-09-20T11:09:33.953Z,3.15
2022-09-20T11:12:51.250Z,3.20
2022-09-20T11:16:09.805Z,3.55
2022-09-20T11:19:27.739Z,3.15
2022-09-20T11:22:48.237Z,17.50
2022-09-20T11:26:04.132Z,4.95
2022-09-20T11:29:23.980Z,4.85
2022-09-20T11:32:42.465Z,5.05
2022-09-20T11:35:59.573Z,4.93
2022-09-20T11:39:17.910Z,3.73
2022-09-20T11:42:34.969Z,3.70
2022-09-20T11:49:03.776Z,2.60
2022-09-20T11:52:48.487Z,2.78
2022-09-20T11:56:05.204Z,4.15
2022-09-20T11:59:28.361Z,16.23
2022-09-20T12:02:45.224Z,7.58
2022-09-20T12:06:04.955Z,2.70
2022-09-20T12:09:32.544Z,2.55
2022-09-20T12:16:06.712Z,2.50
2022-09-20T12:19:38.928Z,2.18
2022-09-20T12:22:50.643Z,1.80
2022-09-20T12:26:14.778Z,2.28
2022-09-20T12:30:20.159Z,2.78
2022-09-20T12:33:35.927Z,2.30
2022-09-20T12:36:50.264Z,1.98
2022-09-20T12:40:03.089Z,1.45
2022-09-20T12:43:25.501Z,1.38
2022-09-20T12:46:59.577Z,1.73
2022-09-20T12:50:34.437Z,1.73
2022-09-20T12:53:46.713Z,1.33
2022-09-20T12:56:58.787Z,1.80
2022-09-20T13:00:23.831Z,1.48
2022-09-20T13:03:39.223Z,1.50
2022-09-20T13:06:51.407Z,1.53
2022-09-20T13:10:03.662Z,1.08
2022-09-20T13:13:35.018Z,1.20
2022-09-20T13:16:56.763Z,1.33
2022-09-20T13:20:11.109Z,1.00
2022-09-20T13:23:30.442Z,1.10
2022-09-20T13:29:48.607Z,1.00
2022-09-20T13:33:00.660Z,1.13
2022-09-20T13:36:14.509Z,0.85
2022-09-20T13:39:41.246Z,1.15
2022-09-20T13:43:19.674Z,1.10
2022-09-20T13:46:17.240Z,1.25
2022-09-20T13:49:29.034Z,1.23
2022-09-20T13:52:50.760Z,1.50
2022-09-20T13:56:03.430Z,0.80
2022-09-20T14:02:27.438Z,1.20
2022-09-20T14:11:40.972Z,0.88
2022-09-20T14:14:54.957Z,1.20
2022-09-20T14:18:10.893Z,0.85
2022-09-20T14:21:28.519Z,1.03
2022-09-20T14:27:43.215Z,1.28
2022-09-20T14:30:55.297Z,1.00
2022-09-20T14:34:09.682Z,1.28
2022-09-20T14:37:26.862Z,1.20
2022-09-20T14:43:42.319Z,1.40
2022-09-20T14:46:54.673Z,1.40
2022-09-20T14:50:06.534Z,0.95
2022-09-20T14:53:38.391Z,1.18
2022-09-20T14:56:57.107Z,1.15
2022-09-20T15:00:15.206Z,1.25
2022-09-20T15:03:33.264Z,1.15
2022-09-20T15:06:46.110Z,1.60
2022-09-20T15:09:59.067Z,1.75
2022-09-20T15:13:12.718Z,1.90
2022-09-20T15:16:26.255Z,1.48
2022-09-20T15:19:40.664Z,1.58
2022-09-20T15:22:53.616Z,2.10
2022-09-20T15:26:05.922Z,2.73
2022-09-20T15:29:22.158Z,1.88
2022-09-20T15:32:33.760Z,1.47
2022-09-20T15:35:46.965Z,1.70
2022-09-20T15:39:00.956Z,1.85
2022-09-20T15:42:13.191Z,1.70
2022-09-20T15:45:27.301Z,1.55
2022-09-20T15:48:40.244Z,1.65
2022-09-20T15:51:52.964Z,1.95
2022-09-20T15:55:05.131Z,1.85
2022-09-20T15:58:17.212Z,1.60
2022-09-20T16:01:29.860Z,1.80
2022-09-20T16:04:41.914Z,1.88
2022-09-20T16:07:53.729Z,2.10
2022-09-20T16:11:06.891Z,3.20
2022-09-20T16:14:19.702Z,2.70
2022-09-20T16:17:43.299Z,2.50
2022-09-20T16:20:55.026Z,2.58
2022-09-20T16:24:08.050Z,2.30
2022-09-20T16:27:20.262Z,2.30
2022-09-20T16:30:33.082Z,2.13
2022-09-20T16:33:45.296Z,2.35
2022-09-20T16:36:59.879Z,2.10
2022-09-20T16:40:16.216Z,2.18
2022-09-20T16:43:29.894Z,2.45
2022-09-20T16:46:44.733Z,2.48
2022-09-20T16:49:58.434Z,2.70
2022-09-20T16:53:12.457Z,2.65
2022-09-20T16:56:31.122Z,2.55
2022-09-20T16:59:43.260Z,2.65
2022-09-20T17:02:56.197Z,3.05
2022-09-20T17:06:12.447Z,3.65
2022-09-20T17:09:25.556Z,3.90
2022-09-20T17:12:40.444Z,3.68
2022-09-20T17:15:53.647Z,3.38
2022-09-20T17:19:09.590Z,3.98
2022-09-20T17:22:22.913Z,4.10
2022-09-20T17:25:35.863Z,4.30
2022-09-20T17:28:51.504Z,4.68
2022-09-20T17:32:07.721Z,4.88
2022-09-20T17:35:20.026Z,4.28
2022-09-20T17:38:33.361Z,4.73
2022-09-20T17:41:47.595Z,5.20
2022-09-20T17:44:59.969Z,4.80
2022-09-20T17:48:11.902Z,5.05
2022-09-20T17:51:25.913Z,5.73
2022-09-20T17:54:37.611Z,5.25
2022-09-20T17:57:49.618Z,6.70
2022-09-20T18:01:12.764Z,7.13
2022-09-20T18:04:25.306Z,6.45
2022-09-20T18:07:37.134Z,7.58
2022-09-20T18:11:00.845Z,7.50
2022-09-20T18:14:14.553Z,8.25
2022-09-20T18:17:26.624Z,8.65
2022-09-20T18:20:38.308Z,8.38
2022-09-20T18:23:53.759Z,9.43
2022-09-20T18:27:06.270Z,9.53
2022-09-20T18:30:21.457Z,9.68
2022-09-20T18:33:38.258Z,10.23
2022-09-20T18:39:55.546Z,9.65
2022-09-20T18:43:11.177Z,9.30
2022-09-20T18:46:25.267Z,9.18
2022-09-20T18:49:38.409Z,8.43
2022-09-20T18:52:51.307Z,8.38
2022-09-20T18:56:19.552Z,9.65
2022-09-20T18:59:33.567Z,11.43
2022-09-20T19:03:09.454Z,9.00
2022-09-20T19:06:24.628Z,8.93
2022-09-20T19:09:45.686Z,9.50
2022-09-20T19:13:05.123Z,10.50
2022-09-20T19:16:38.534Z,10.98
2022-09-20T19:19:56.968Z,10.68
2022-09-20T19:23:25.828Z,11.18
2022-09-20T19:26:42.555Z,11.83
2022-09-20T19:33:14.685Z,11.33
2022-09-20T19:36:38.808Z,11.90
2022-09-20T19:40:20.016Z,11.03
2022-09-20T19:44:01.298Z,11.80
2022-09-20T19:47:29.226Z,12.15
2022-09-20T19:50:48.454Z,11.28
2022-09-20T19:54:02.945Z,11.90
2022-09-20T19:57:21.771Z,13.00
2022-09-20T20:00:36.928Z,12.33
2022-09-20T20:03:50.638Z,12.15
2022-09-20T20:07:10.204Z,13.20
2022-09-20T20:10:30.456Z,13.40
2022-09-20T20:14:02.980Z,14.60
2022-09-20T20:17:28.314Z,14.63
2022-09-20T20:20:48.359Z,14.35
2022-09-20T20:24:15.633Z,15.90
2022-09-20T20:27:31.494Z,16.38
2022-09-20T20:30:43.461Z,17.03
2022-09-20T20:33:55.561Z,17.58
2022-09-20T20:37:07.504Z,17.95
2022-09-20T20:40:23.436Z,17.00
2022-09-20T20:43:36.171Z,17.40
2022-09-20T20:46:47.834Z,17.23
2022-09-20T20:49:59.869Z,18.78
2022-09-20T20:53:11.604Z,18.00
2022-09-20T20:56:26.429Z,17.30
2022-09-20T20:59:38.138Z,17.30
2022-09-20T21:02:50.212Z,18.75
2022-09-20T21:06:04.464Z,18.23
2022-09-20T21:09:17.336Z,19.53
2022-09-20T21:12:31.135Z,17.75
2022-09-20T21:15:43.321Z,18.85
2022-09-20T21:18:56.759Z,19.93
2022-09-20T21:22:09.708Z,19.50
2022-09-20T21:25:23.677Z,20.15
2022-09-20T21:28:40.118Z,19.18
2022-09-20T21:31:59.779Z,21.55
2022-09-20T21:35:14.527Z,20.88
2022-09-20T21:38:28.112Z,20.93
2022-09-20T21:41:42.345Z,19.13
2022-09-20T21:44:54.093Z,19.58
2022-09-20T21:48:07.936Z,19.18
2022-09-20T21:51:22.647Z,20.60
2022-09-20T21:54:34.499Z,19.93
2022-09-20T21:57:46.504Z,20.03
2022-09-20T22:01:06.357Z,21.05
2022-09-20T22:04:19.252Z,20.73
2022-09-20T22:07:31.017Z,20.90
2022-09-20T22:10:42.769Z,19.73
2022-09-20T22:13:56.581Z,18.75
2022-09-20T22:17:08.186Z,20.43
2022-09-20T22:20:20.280Z,19.53
2022-09-20T22:23:31.908Z,19.30
2022-09-20T22:26:46.158Z,19.15
2022-09-20T22:30:00.421Z,18.90
2022-09-20T22:33:12.287Z,20.10
2022-09-20T22:36:27.083Z,19.28
2022-09-20T22:39:38.805Z,19.38
2022-09-20T22:42:50.459Z,18.43
2022-09-20T22:46:10.682Z,19.58
2022-09-20T22:49:22.536Z,19.23
2022-09-20T22:52:34.180Z,18.43
2022-09-20T22:55:45.760Z,19.05
2022-09-20T22:59:00.259Z,18.40
2022-09-20T23:02:12.447Z,17.78
2022-09-20T23:05:24.414Z,15.93
2022-09-20T23:08:37.694Z,18.13
2022-09-20T23:11:50.660Z,17.00
2022-09-20T23:15:02.158Z,17.65
2022-09-20T23:18:16.095Z,17.85
2022-09-20T23:21:28.581Z,19.20
2022-09-20T23:24:40.458Z,17.53
2022-09-20T23:27:52.009Z,18.25
2022-09-20T23:31:09.076Z,18.83
2022-09-20T23:37:31.194Z,19.33
2022-09-20T23:40:43.469Z,16.63
2022-09-20T23:43:55.846Z,17.80
2022-09-20T23:47:07.559Z,17.85
2022-09-20T23:50:19.215Z,17.75
2022-09-20T23:53:30.989Z,17.35
2022-09-20T23:56:42.851Z,16.68
2022-09-20T23:59:54.529Z,16.05
